Time;durP1;ratioP1;P1;durP2;ratioP2;P2;SDS_P1;SDS_P2;PMS_P1;PMS_P2;Temp;Humidity;BMP_temperature;BMP_pressure;BME280_temperature;BME280_humidity;BME280_pressure;Samples;Min_cycle;Max_cycle;Signal;HPM_P1;HPM_P2
2022/03/19 00:02:11;;;;;;;;;;;;;;;;;;5065332;28;1247;-74
2022/03/19 00:04:36;;;;;;;;;;;;;;;;;;5087932;28;1163;-75
2022/03/19 00:07:01;;;;;;;;;;;;;;;;;;5067130;28;1024;-75
2022/03/19 00:09:27;;;;;;;;;;;;;;;;;;5051655;28;1235;-75
2022/03/19 00:11:54;;;;;;;;;;;;;;;;;;5067706;28;1953;-74
2022/03/19 00:14:19;;;;;;;;;;;;;;;;;;5051250;28;1157;-73
2022/03/19 00:16:45;;;;;;;;;;;;;;;;;;5085241;28;1246;-74
2022/03/19 00:19:10;;;;;;;;;;;;;;;;;;5055780;28;1558;-74
2022/03/19 00:21:37;;;;;;;;;;;;;;;;;;5069182;28;1509;-74
2022/03/19 00:24:04;;;;;;;;;;;;;;;;;;5066759;28;1433;-74
2022/03/19 00:26:30;;;;;;;;;;;;;;;;;;5069512;28;1183;-73
2022/03/19 00:28:56;;;;;;;;;;;;;;;;;;5107147;28;1301;-74
2022/03/19 00:31:21;;;;;;;;;;;;;;;;;;5085413;28;1918;-74
2022/03/19 00:33:47;;;;;;;;;;;;;;;;;;5072762;28;1472;-73
2022/03/19 00:36:12;;;;;;;;;;;;;;;;;;5086858;28;1393;-74
2022/03/19 00:38:37;;;;;;;;;;;;;;;;;;5087010;28;1255;-73
2022/03/19 00:41:03;;;;;;;;;;;;;;;;;;5105145;28;1218;-74
2022/03/19 00:43:28;;;;;;;;;;;;;;;;;;5086913;28;1332;-74
2022/03/19 00:45:54;;;;;;;;;;;;;;;;;;5069053;28;1278;-72
2022/03/19 00:48:19;;;;;;;;;;;;;;;;;;5086782;28;1156;-75
2022/03/19 00:50:44;;;;;;;;;;;;;;;;;;5073893;28;1950;-75
2022/03/19 00:53:10;;;;;;;;;;;;;;;;;;5083704;28;1064;-74
2022/03/19 00:55:35;;;;;;;;;;;;;;;;;;5066439;28;1787;-74
2022/03/19 00:58:01;;;;;;;;;;;;;;;;;;5064337;28;1496;-75
2022/03/19 01:00:27;;;;;;;;;;;;;;;;;;5049456;28;1124;-75
2022/03/19 01:02:54;;;;;;;;;;;;;;;;;;5084840;28;1222;-74
2022/03/19 01:05:20;;;;;;;;;;;;;;;;;;5063428;28;1212;-74
2022/03/19 01:07:55;;;;;;;;;;;;;;;;;;5068498;28;1286;-73
2022/03/19 01:10:22;;;;;;;;;;;;;;;;;;5085053;28;1131;-73
2022/03/19 01:12:48;;;;;;;;;;;;;;;;;;5084766;28;1925;-74
2022/03/19 01:15:15;;;;;;;;;;;;;;;;;;5080454;28;1196;-73
2022/03/19 01:17:40;;;;;;;;;;;;;;;;;;5066531;28;1157;-74
2022/03/19 01:20:06;;;;;;;;;;;;;;;;;;5048811;28;1198;-74
2022/03/19 01:22:32;;;;;;;;;;;;;;;;;;5068460;28;1124;-75
2022/03/19 01:25:00;;;;;;;;;;;;;;;;;;5051071;28;1272;-75
2022/03/19 01:27:25;;;;;;;;;;;;;;;;;;5048806;28;1358;-74
2022/03/19 01:29:51;;;;;;;;;;;;;;;;;;5083765;28;1172;-74
2022/03/19 01:32:16;;;;;;;;;;;;;;;;;;5079385;28;1975;-75
2022/03/19 01:34:41;;;;;;;;;;;;;;;;;;5050724;28;1212;-74
2022/03/19 01:37:07;;;;;;;;;;;;;;;;;;5082112;28;1299;-75
2022/03/19 01:39:32;;;;;;;;;;;;;;;;;;5066652;28;1669;-74
2022/03/19 01:41:57;;;;;;;;;;;;;;;;;;5052652;28;1227;-74
2022/03/19 01:44:23;;;;;;;;;;;;;;;;;;5081765;28;1024;-74
2022/03/19 01:46:54;;;;;;;;;;;;;;;;;;5066124;28;1160;-73
2022/03/19 01:49:19;;;;;;;;;;;;;;;;;;5083610;28;1104;-76
2022/03/19 01:51:44;;;;;;;;;;;;;;;;;;5068443;28;1961;-75
2022/03/19 01:54:10;;;;;;;;;;;;;;;;;;5046777;28;1347;-74
2022/03/19 01:56:35;;;;;;;;;;;;;;;;;;5084582;28;1216;-74
2022/03/19 01:59:02;;;;;;;;;;;;;;;;;;5063584;28;1255;-74
2022/03/19 02:01:28;;;;;;;;;;;;;;;;;;5046935;28;1274;-75
2022/03/19 02:03:53;;;;;;;;;;;;;;;;;;5067752;28;1365;-74
2022/03/19 02:06:22;;;;;;;;;;;;;;;;;;5047937;28;1307;-74
2022/03/19 02:08:48;;;;;;;;;;;;;;;;;;5084862;28;1147;-75
2022/03/19 02:11:13;;;;;;;;;;;;;;;;;;5048647;28;1957;-74
2022/03/19 02:13:39;;;;;;;;;;;;;;;;;;5064341;28;1180;-74
2022/03/19 02:16:05;;;;;;;;;;;;;;;;;;5085994;28;1262;-75
2022/03/19 02:18:31;;;;;;;;;;;;;;;;;;5083172;28;1184;-75
2022/03/19 02:20:59;;;;;;;;;;;;;;;;;;5085844;28;1408;-74
2022/03/19 02:26:12;;;;;;;;;;;;;;;;;;5102744;28;1043;-75
2022/03/19 02:28:37;;;;;;;;;;;;;;;;;;5082953;28;1523;-75
2022/03/19 02:31:02;;;;;;;;;;;;;;;;;;5086020;28;1918;-74
2022/03/19 02:33:28;;;;;;;;;;;;;;;;;;5084984;28;1147;-73
2022/03/19 02:35:53;;;;;;;;;;;;;;;;;;5103291;28;1140;-73
2022/03/19 02:38:18;;;;;;;;;;;;;;;;;;5082799;28;1156;-74
2022/03/19 02:40:43;;;;;;;;;;;;;;;;;;5085808;28;1297;-74
2022/03/19 02:43:09;;;;;;;;;;;;;;;;;;5064913;28;1305;-74
2022/03/19 02:45:34;;;;;;;;;;;;;;;;;;5085799;28;1324;-75
2022/03/19 02:48:00;;;;;;;;;;;;;;;;;;5068141;28;1218;-74
2022/03/19 02:50:30;;;;;;;;;;;;;;;;;;5065851;28;1325;-73
2022/03/19 02:52:56;;;;;;;;;;;;;;;;;;5085424;28;1944;-75
2022/03/19 02:55:22;;;;;;;;;;;;;;;;;;5102415;28;1021;-75
2022/03/19 02:57:47;;;;;;;;;;;;;;;;;;5085533;28;1227;-75
2022/03/19 03:00:12;;;;;;;;;;;;;;;;;;5061053;28;1101;-74
2022/03/19 03:02:38;;;;;;;;;;;;;;;;;;5049358;28;1252;-75
2022/03/19 03:05:04;;;;;;;;;;;;;;;;;;5082601;28;1117;-74
2022/03/19 03:07:29;;;;;;;;;;;;;;;;;;5088375;28;1191;-74
2022/03/19 03:09:54;;;;;;;;;;;;;;;;;;5085438;28;1315;-75
2022/03/19 03:12:20;;;;;;;;;;;;;;;;;;5066417;28;1889;-75
2022/03/19 03:14:45;;;;;;;;;;;;;;;;;;5071137;28;1163;-75
2022/03/19 03:17:11;;;;;;;;;;;;;;;;;;5064544;28;1148;-74
2022/03/19 03:19:37;;;;;;;;;;;;;;;;;;5068084;28;1413;-74
2022/03/19 03:22:03;;;;;;;;;;;;;;;;;;5070089;28;1282;-74
2022/03/19 03:24:29;;;;;;;;;;;;;;;;;;5106286;28;1140;-74
2022/03/19 03:26:54;;;;;;;;;;;;;;;;;;5080167;28;1327;-75
2022/03/19 03:29:19;;;;;;;;;;;;;;;;;;5084157;28;1128;-75
2022/03/19 03:31:45;;;;;;;;;;;;;;;;;;5068699;28;1973;-74
2022/03/19 03:34:11;;;;;;;;;;;;;;;;;;5069453;28;1270;-75
2022/03/19 03:36:36;;;;;;;;;;;;;;;;;;5066731;28;1408;-73
2022/03/19 03:39:01;;;;;;;;;;;;;;;;;;5088045;28;1183;-75
2022/03/19 03:41:27;;;;;;;;;;;;;;;;;;5051121;28;1404;-75
2022/03/19 03:43:52;;;;;;;;;;;;;;;;;;5050504;28;1434;-74
2022/03/19 03:46:17;;;;;;;;;;;;;;;;;;5067550;28;1251;-74
2022/03/19 03:48:43;;;;;;;;;;;;;;;;;;5052803;28;1161;-75
2022/03/19 03:51:10;;;;;;;;;;;;;;;;;;5069274;28;1898;-75
2022/03/19 03:53:37;;;;;;;;;;;;;;;;;;5068308;28;1250;-75
2022/03/19 03:56:06;;;;;;;;;;;;;;;;;;5086868;28;1373;-74
2022/03/19 03:58:31;;;;;;;;;;;;;;;;;;5048750;28;1456;-74
2022/03/19 04:00:57;;;;;;;;;;;;;;;;;;5068143;28;1298;-74
2022/03/19 04:03:22;;;;;;;;;;;;;;;;;;5067718;28;1182;-75
2022/03/19 04:05:48;;;;;;;;;;;;;;;;;;5068496;28;1187;-74
2022/03/19 04:08:14;;;;;;;;;;;;;;;;;;5074189;28;1274;-74
2022/03/19 04:10:40;;;;;;;;;;;;;;;;;;5070372;28;1897;-74
2022/03/19 04:13:05;;;;;;;;;;;;;;;;;;5085678;28;1294;-75
2022/03/19 04:15:30;;;;;;;;;;;;;;;;;;5085435;28;1073;-74
2022/03/19 04:17:56;;;;;;;;;;;;;;;;;;5087443;28;1148;-74
2022/03/19 04:20:22;;;;;;;;;;;;;;;;;;5068212;28;1678;-74
2022/03/19 04:22:48;;;;;;;;;;;;;;;;;;5068886;28;1266;-75
2022/03/19 04:25:15;;;;;;;;;;;;;;;;;;5068345;28;1280;-74
2022/03/19 04:27:41;;;;;;;;;;;;;;;;;;5066199;28;1212;-74
2022/03/19 04:30:07;;;;;;;;;;;;;;;;;;5064945;28;1156;-73
2022/03/19 04:32:38;;;;;;;;;;;;;;;;;;5075530;28;1975;-74
2022/03/19 04:36:29;;;;;;;;;;;;;;;;;;5106228;28;1175;-75
2022/03/19 04:37:49;;;;;;;;;;;;;;;;;;5106661;28;1099;-74
2022/03/19 04:40:18;;;;;;;;;;;;;;;;;;5105779;28;1151;-74
2022/03/19 04:42:44;;;;;;;;;;;;;;;;;;5088014;28;1252;-74
2022/03/19 04:45:10;;;;;;;;;;;;;;;;;;5083604;28;1285;-73
2022/03/19 04:47:35;;;;;;;;;;;;;;;;;;5088464;28;1257;-74
2022/03/19 04:50:04;;;;;;;;;;;;;;;;;;5088278;28;1188;-75
2022/03/19 04:52:29;;;;;;;;;;;;;;;;;;5070275;28;1890;-73
2022/03/19 04:54:57;;;;;;;;;;;;;;;;;;5088396;28;1155;-74
2022/03/19 04:57:22;;;;;;;;;;;;;;;;;;5068208;28;1330;-74
2022/03/19 04:59:47;;;;;;;;;;;;;;;;;;5068614;28;1179;-73
2022/03/19 05:02:13;;;;;;;;;;;;;;;;;;5066045;28;1029;-74
2022/03/19 05:04:38;;;;;;;;;;;;;;;;;;5052787;28;1374;-74
2022/03/19 05:07:03;;;;;;;;;;;;;;;;;;5086167;28;1310;-74
2022/03/19 05:12:27;;;;;;;;;;;;;;;;;;5104908;28;1957;-75
2022/03/19 05:14:52;;;;;;;;;;;;;;;;;;5089847;28;1119;-74
2022/03/19 05:17:18;;;;;;;;;;;;;;;;;;5082837;28;1143;-75
2022/03/19 05:19:44;;;;;;;;;;;;;;;;;;5065436;28;1314;-74
2022/03/19 05:22:09;;;;;;;;;;;;;;;;;;5066077;28;1106;-75
2022/03/19 05:24:34;;;;;;;;;;;;;;;;;;5066178;28;1328;-75
2022/03/19 05:27:00;;;;;;;;;;;;;;;;;;5065542;28;1252;-74
2022/03/19 05:29:25;;;;;;;;;;;;;;;;;;5079873;28;1453;-74
2022/03/19 05:31:50;;;;;;;;;;;;;;;;;;5063547;28;1914;-73
2022/03/19 05:34:31;;;;;;;;;;;;;;;;;;5085817;28;1167;-74
2022/03/19 05:37:00;;;;;;;;;;;;;;;;;;5073380;28;1091;-74
2022/03/19 05:39:26;;;;;;;;;;;;;;;;;;5085570;28;1294;-75
2022/03/19 05:41:52;;;;;;;;;;;;;;;;;;5105166;28;1188;-74
2022/03/19 05:44:17;;;;;;;;;;;;;;;;;;5084229;28;1278;-75
2022/03/19 05:46:42;;;;;;;;;;;;;;;;;;5081492;28;1141;-75
2022/03/19 05:49:07;;;;;;;;;;;;;;;;;;5071027;28;1297;-75
2022/03/19 05:51:33;;;;;;;;;;;;;;;;;;5101893;28;1897;-75
2022/03/19 05:53:58;;;;;;;;;;;;;;;;;;5088036;28;1230;-74
2022/03/19 05:56:24;;;;;;;;;;;;;;;;;;5105395;28;1172;-74
2022/03/19 05:58:50;;;;;;;;;;;;;;;;;;5084215;28;1229;-75
2022/03/19 06:01:16;;;;;;;;;;;;;;;;;;5067622;28;1440;-74
2022/03/19 06:03:41;;;;;;;;;;;;;;;;;;5074675;28;1210;-74
2022/03/19 06:06:06;;;;;;;;;;;;;;;;;;5065737;28;1297;-74
2022/03/19 06:08:31;;;;;;;;;;;;;;;;;;5046566;28;1317;-75
2022/03/19 06:10:57;;;;;;;;;;;;;;;;;;5065516;28;1939;-74
2022/03/19 06:13:25;;;;;;;;;;;;;;;;;;5063727;28;1235;-74
2022/03/19 06:15:50;;;;;;;;;;;;;;;;;;5046158;28;1021;-74
2022/03/19 06:18:17;;;;;;;;;;;;;;;;;;5065958;28;1113;-74
2022/03/19 06:20:42;;;;;;;;;;;;;;;;;;5058689;28;1263;-74
2022/03/19 06:23:08;;;;;;;;;;;;;;;;;;5101282;28;1384;-74
2022/03/19 06:25:34;;;;;;;;;;;;;;;;;;5047217;28;1355;-74
2022/03/19 06:28:03;;;;;;;;;;;;;;;;;;5063639;28;1231;-73
2022/03/19 06:30:31;;;;;;;;;;;;;;;;;;5061848;28;1160;-74
2022/03/19 06:32:58;;;;;;;;;;;;;;;;;;5083703;28;1922;-74
2022/03/19 06:38:10;;;;;;;;;;;;;;;;;;5084553;28;1039;-74
2022/03/19 06:40:35;;;;;;;;;;;;;;;;;;5050562;28;1355;-74
2022/03/19 06:43:01;;;;;;;;;;;;;;;;;;5084334;28;1211;-75
2022/03/19 06:45:30;;;;;;;;;;;;;;;;;;5062158;28;1282;-74
2022/03/19 06:47:55;;;;;;;;;;;;;;;;;;5065208;28;1198;-74
2022/03/19 06:50:21;;;;;;;;;;;;;;;;;;5064575;28;1219;-74
2022/03/19 06:52:46;;;;;;;;;;;;;;;;;;5047394;28;1886;-74
2022/03/19 06:55:11;;;;;;;;;;;;;;;;;;5064295;28;1331;-74
2022/03/19 06:57:36;;;;;;;;;;;;;;;;;;5071779;28;1276;-72
2022/03/19 07:00:11;;;;;;;;;;;;;;;;;;5069923;28;1196;-73
2022/03/19 07:02:50;;;;;;;;;;;;;;;;;;5105481;28;1211;-74
2022/03/19 07:05:23;;;;;;;;;;;;;;;;;;5087842;28;1244;-73
2022/03/19 07:07:48;;;;;;;;;;;;;;;;;;5103320;28;1052;-73
2022/03/19 07:10:15;;;;;;;;;;;;;;;;;;5068070;28;1132;-73
2022/03/19 07:12:42;;;;;;;;;;;;;;;;;;5094001;28;1945;-73
2022/03/19 07:15:08;;;;;;;;;;;;;;;;;;5084441;28;1269;-73
2022/03/19 07:17:34;;;;;;;;;;;;;;;;;;5085525;28;1230;-73
2022/03/19 07:20:00;;;;;;;;;;;;;;;;;;5069945;28;1219;-73
2022/03/19 07:22:25;;;;;;;;;;;;;;;;;;5050229;28;1277;-73
2022/03/19 07:24:51;;;;;;;;;;;;;;;;;;5066135;28;1129;-73
2022/03/19 07:27:16;;;;;;;;;;;;;;;;;;5071327;28;1310;-74
2022/03/19 07:29:41;;;;;;;;;;;;;;;;;;5102328;28;1163;-74
2022/03/19 07:32:07;;;;;;;;;;;;;;;;;;5069780;28;1930;-73
2022/03/19 07:34:39;;;;;;;;;;;;;;;;;;5106641;28;1179;-74
2022/03/19 07:37:04;;;;;;;;;;;;;;;;;;5088108;28;1300;-74
2022/03/19 07:39:30;;;;;;;;;;;;;;;;;;5108003;28;1088;-74
2022/03/19 07:41:56;;;;;;;;;;;;;;;;;;5087771;28;1112;-73
2022/03/19 07:44:21;;;;;;;;;;;;;;;;;;5106345;28;1171;-73
2022/03/19 07:46:46;;;;;;;;;;;;;;;;;;5101823;28;1411;-74
2022/03/19 07:49:12;;;;;;;;;;;;;;;;;;5088691;28;1159;-74
2022/03/19 07:51:37;;;;;;;;;;;;;;;;;;5086897;28;1951;-74
2022/03/19 07:54:02;;;;;;;;;;;;;;;;;;5087302;28;1219;-74
2022/03/19 07:56:28;;;;;;;;;;;;;;;;;;5088386;28;1255;-73
2022/03/19 07:58:53;;;;;;;;;;;;;;;;;;5066670;28;1250;-73
2022/03/19 08:01:19;;;;;;;;;;;;;;;;;;5086427;28;1175;-74
2022/03/19 08:03:45;;;;;;;;;;;;;;;;;;5084054;28;1281;-74
2022/03/19 08:06:11;;;;;;;;;;;;;;;;;;5067097;28;1249;-73
2022/03/19 08:08:37;;;;;;;;;;;;;;;;;;5048105;28;1201;-73
2022/03/19 08:11:03;;;;;;;;;;;;;;;;;;5053478;28;1940;-73
2022/03/19 08:13:28;;;;;;;;;;;;;;;;;;5083833;28;1227;-74
2022/03/19 08:15:54;;;;;;;;;;;;;;;;;;5047110;28;1432;-73
2022/03/19 08:18:19;;;;;;;;;;;;;;;;;;5086116;28;1188;-73
2022/03/19 08:20:46;;;;;;;;;;;;;;;;;;5049444;28;1167;-73
2022/03/19 08:23:11;;;;;;;;;;;;;;;;;;5050464;28;1236;-73
2022/03/19 08:25:40;;;;;;;;;;;;;;;;;;5065197;28;1071;-73
2022/03/19 08:28:05;;;;;;;;;;;;;;;;;;5065483;28;1134;-73
2022/03/19 08:30:30;;;;;;;;;;;;;;;;;;5083884;28;1097;-73
2022/03/19 08:32:55;;;;;;;;;;;;;;;;;;5105179;28;1977;-74
2022/03/19 08:35:20;;;;;;;;;;;;;;;;;;5105828;28;1203;-74
2022/03/19 08:37:46;;;;;;;;;;;;;;;;;;5085915;28;1385;-74
2022/03/19 08:40:15;;;;;;;;;;;;;;;;;;5087625;28;1645;-74
2022/03/19 08:42:41;;;;;;;;;;;;;;;;;;5105503;28;1023;-74
2022/03/19 08:45:07;;;;;;;;;;;;;;;;;;5084181;28;1496;-73
2022/03/19 08:47:32;;;;;;;;;;;;;;;;;;5086276;28;1116;-73
2022/03/19 08:49:58;;;;;;;;;;;;;;;;;;5087362;28;1315;-73
2022/03/19 08:52:23;;;;;;;;;;;;;;;;;;5086643;28;1894;-73
2022/03/19 08:54:49;;;;;;;;;;;;;;;;;;5086423;28;1221;-73
2022/03/19 08:57:14;;;;;;;;;;;;;;;;;;5087806;28;1277;-73
2022/03/19 08:59:40;;;;;;;;;;;;;;;;;;5066916;28;1483;-74
2022/03/19 09:02:05;;;;;;;;;;;;;;;;;;5103405;28;1207;-73
2022/03/19 09:04:32;;;;;;;;;;;;;;;;;;5062491;28;1301;-73
2022/03/19 09:06:57;;;;;;;;;;;;;;;;;;5064627;28;1262;-74
2022/03/19 09:09:23;;;;;;;;;;;;;;;;;;5050252;28;1309;-73
2022/03/19 09:11:48;;;;;;;;;;;;;;;;;;5063787;28;1940;-74
2022/03/19 09:14:14;;;;;;;;;;;;;;;;;;5064002;28;1152;-73
2022/03/19 09:16:43;;;;;;;;;;;;;;;;;;5042877;28;1238;-73
2022/03/19 09:19:08;;;;;;;;;;;;;;;;;;5050061;28;1211;-72
2022/03/19 09:21:33;;;;;;;;;;;;;;;;;;5047391;28;1192;-71
2022/03/19 09:23:59;;;;;;;;;;;;;;;;;;5081914;28;1716;-73
2022/03/19 09:26:24;;;;;;;;;;;;;;;;;;5085082;28;1116;-74
2022/03/19 09:28:50;;;;;;;;;;;;;;;;;;5081352;28;1076;-74
2022/03/19 09:31:16;;;;;;;;;;;;;;;;;;5082896;28;1930;-74
2022/03/19 09:33:42;;;;;;;;;;;;;;;;;;5081021;28;1176;-74
2022/03/19 09:36:07;;;;;;;;;;;;;;;;;;5085361;28;1100;-73
2022/03/19 09:38:33;;;;;;;;;;;;;;;;;;5066254;28;1103;-74
2022/03/19 09:40:58;;;;;;;;;;;;;;;;;;5084705;28;1219;-73
2022/03/19 09:43:24;;;;;;;;;;;;;;;;;;5064207;28;1302;-73
2022/03/19 09:45:51;;;;;;;;;;;;;;;;;;5064150;28;1429;-74
2022/03/19 09:48:16;;;;;;;;;;;;;;;;;;5047582;28;1324;-74
2022/03/19 09:50:42;;;;;;;;;;;;;;;;;;5066060;28;1172;-75
2022/03/19 09:53:08;;;;;;;;;;;;;;;;;;5063894;28;1914;-74
2022/03/19 09:55:36;;;;;;;;;;;;;;;;;;5068337;28;1175;-74
2022/03/19 09:58:05;;;;;;;;;;;;;;;;;;5080049;28;1404;-74
2022/03/19 10:00:31;;;;;;;;;;;;;;;;;;5069314;28;1156;-74
2022/03/19 10:02:56;;;;;;;;;;;;;;;;;;5078601;28;1080;-73
2022/03/19 10:10:50;;;;;;;;;;;;;;;;;;5082780;28;991;-74
2022/03/19 10:13:15;;;;;;;;;;;;;;;;;;5063202;28;1946;-74
2022/03/19 10:15:42;;;;;;;;;;;;;;;;;;5063366;28;1274;-73
2022/03/19 10:18:08;;;;;;;;;;;;;;;;;;5053111;28;1286;-74
2022/03/19 10:20:37;;;;;;;;;;;;;;;;;;5060210;28;1358;-74
2022/03/19 10:23:02;;;;;;;;;;;;;;;;;;5059257;28;1251;-74
2022/03/19 10:25:28;;;;;;;;;;;;;;;;;;5083919;28;1148;-74
2022/03/19 10:27:59;;;;;;;;;;;;;;;;;;5080826;28;1124;-75
2022/03/19 10:30:28;;;;;;;;;;;;;;;;;;5082375;28;1420;-74
2022/03/19 10:32:54;;;;;;;;;;;;;;;;;;5062247;28;1957;-74
2022/03/19 10:35:26;;;;;;;;;;;;;;;;;;5083582;28;1100;-74
2022/03/19 10:37:52;;;;;;;;;;;;;;;;;;5063630;28;1247;-74
2022/03/19 10:40:18;;;;;;;;;;;;;;;;;;5064422;28;1148;-74
2022/03/19 10:42:44;;;;;;;;;;;;;;;;;;5101306;28;1112;-73
2022/03/19 10:45:11;;;;;;;;;;;;;;;;;;5081516;28;1238;-74
2022/03/19 10:47:41;;;;;;;;;;;;;;;;;;5071715;28;1202;-73
2022/03/19 10:50:06;;;;;;;;;;;;;;;;;;5073723;28;1518;-74
2022/03/19 10:52:33;;;;;;;;;;;;;;;;;;5046601;28;1886;-75
2022/03/19 10:55:03;;;;;;;;;;;;;;;;;;5084266;28;1153;-74
2022/03/19 10:57:28;;;;;;;;;;;;;;;;;;5068900;28;1393;-74
2022/03/19 10:59:54;;;;;;;;;;;;;;;;;;5100426;28;1124;-75
2022/03/19 11:02:21;;;;;;;;;;;;;;;;;;5083262;28;1203;-75
2022/03/19 11:04:48;;;;;;;;;;;;;;;;;;5067978;28;1142;-76
2022/03/19 11:07:16;;;;;;;;;;;;;;;;;;5091013;28;1202;-75
2022/03/19 11:09:42;;;;;;;;;;;;;;;;;;5064567;28;1247;-75
2022/03/19 11:12:09;;;;;;;;;;;;;;;;;;5063087;28;1947;-75
2022/03/19 11:14:36;;;;;;;;;;;;;;;;;;5070965;28;1326;-74
2022/03/19 11:17:24;;;;;;;;;;;;;;;;;;5060520;28;1198;-75
2022/03/19 11:20:00;;;;;;;;;;;;;;;;;;5077123;28;1238;-74
2022/03/19 11:22:27;;;;;;;;;;;;;;;;;;5069264;28;1309;-74
2022/03/19 11:24:54;;;;;;;;;;;;;;;;;;5063530;28;1188;-74
2022/03/19 11:27:20;;;;;;;;;;;;;;;;;;5064586;28;1333;-74
2022/03/19 11:29:46;;;;;;;;;;;;;;;;;;5046508;28;1235;-74
2022/03/19 11:32:22;;;;;;;;;;;;;;;;;;5062960;28;1910;-74
2022/03/19 11:34:49;;;;;;;;;;;;;;;;;;5084396;28;1305;-74
2022/03/19 11:37:15;;;;;;;;;;;;;;;;;;5069442;28;1406;-75
2022/03/19 11:39:59;;;;;;;;;;;;;;;;;;5067021;28;1326;-75
2022/03/19 11:42:34;;;;;;;;;;;;;;;;;;5076526;28;1338;-76
2022/03/19 11:45:12;;;;;;;;;;;;;;;;;;5066087;28;1015;-74
2022/03/19 11:47:39;;;;;;;;;;;;;;;;;;5102316;28;1191;-74
2022/03/19 11:50:17;;;;;;;;;;;;;;;;;;5086513;28;1222;-75
2022/03/19 11:52:43;;;;;;;;;;;;;;;;;;5086272;28;1894;-74
2022/03/19 11:55:10;;;;;;;;;;;;;;;;;;5087052;28;1313;-74
2022/03/19 11:57:50;;;;;;;;;;;;;;;;;;5064516;28;1330;-74
2022/03/19 12:00:16;;;;;;;;;;;;;;;;;;5068733;28;1142;-78
2022/03/19 12:03:02;;;;;;;;;;;;;;;;;;5098434;28;1143;-75
2022/03/19 12:05:27;;;;;;;;;;;;;;;;;;5073096;28;1334;-75
2022/03/19 12:07:59;;;;;;;;;;;;;;;;;;5078227;28;1175;-75
2022/03/19 12:10:24;;;;;;;;;;;;;;;;;;5087890;28;1325;-75
2022/03/19 12:12:49;;;;;;;;;;;;;;;;;;5072141;28;1890;-74
2022/03/19 12:15:33;;;;;;;;;;;;;;;;;;5090050;28;1100;-74
2022/03/19 12:18:17;;;;;;;;;;;;;;;;;;5082578;28;1196;-75
2022/03/19 12:20:43;;;;;;;;;;;;;;;;;;5106631;28;1155;-75
2022/03/19 12:23:08;;;;;;;;;;;;;;;;;;5067932;28;1275;-74
2022/03/19 12:25:34;;;;;;;;;;;;;;;;;;5106921;28;1222;-73
2022/03/19 12:28:01;;;;;;;;;;;;;;;;;;5102419;28;1167;-74
2022/03/19 12:30:26;;;;;;;;;;;;;;;;;;5068556;28;1269;-74
2022/03/19 12:32:56;;;;;;;;;;;;;;;;;;5079545;28;1969;-74
2022/03/19 12:35:26;;;;;;;;;;;;;;;;;;5089032;28;1175;-74
2022/03/19 12:37:51;;;;;;;;;;;;;;;;;;5106125;28;1191;-74
2022/03/19 12:40:18;;;;;;;;;;;;;;;;;;5106134;28;1198;-75
2022/03/19 12:42:49;;;;;;;;;;;;;;;;;;5087302;28;1204;-75
2022/03/19 12:45:14;;;;;;;;;;;;;;;;;;5076455;28;1175;-77
2022/03/19 12:47:39;;;;;;;;;;;;;;;;;;5091851;28;1100;-75
2022/03/19 12:50:05;;;;;;;;;;;;;;;;;;5093099;28;1168;-76
2022/03/19 12:52:33;;;;;;;;;;;;;;;;;;5072270;28;1951;-75
2022/03/19 12:55:01;;;;;;;;;;;;;;;;;;5097746;28;1211;-76
2022/03/19 12:57:31;;;;;;;;;;;;;;;;;;5049910;28;1361;-76
2022/03/19 12:59:58;;;;;;;;;;;;;;;;;;5083112;28;1207;-76
2022/03/19 13:02:25;;;;;;;;;;;;;;;;;;5083728;28;1406;-76
2022/03/19 13:04:51;;;;;;;;;;;;;;;;;;5072926;28;1243;-75
2022/03/19 13:07:22;;;;;;;;;;;;;;;;;;5086005;28;1151;-76
2022/03/19 13:09:47;;;;;;;;;;;;;;;;;;5092171;28;1100;-77
2022/03/19 13:12:17;;;;;;;;;;;;;;;;;;5084948;28;1882;-76
2022/03/19 13:14:53;;;;;;;;;;;;;;;;;;5085125;28;1167;-76
2022/03/19 13:17:22;;;;;;;;;;;;;;;;;;5092160;28;1194;-76
2022/03/19 13:19:48;;;;;;;;;;;;;;;;;;5064349;28;1246;-76
2022/03/19 13:22:19;;;;;;;;;;;;;;;;;;5088312;28;1340;-76
2022/03/19 13:24:46;;;;;;;;;;;;;;;;;;5063083;28;1327;-75
2022/03/19 13:27:11;;;;;;;;;;;;;;;;;;5067106;28;1200;-75
2022/03/19 13:29:37;;;;;;;;;;;;;;;;;;5077001;28;1160;-76
2022/03/19 13:32:07;;;;;;;;;;;;;;;;;;5063000;28;1909;-74
2022/03/19 13:34:33;;;;;;;;;;;;;;;;;;5082785;28;1159;-75
2022/03/19 13:37:06;;;;;;;;;;;;;;;;;;5083927;28;1223;-75
2022/03/19 13:39:32;;;;;;;;;;;;;;;;;;5067780;28;1434;-74
2022/03/19 13:42:03;;;;;;;;;;;;;;;;;;5088764;28;1148;-74
2022/03/19 13:44:30;;;;;;;;;;;;;;;;;;5104454;28;1373;-75
2022/03/19 13:47:02;;;;;;;;;;;;;;;;;;5072009;28;1392;-75
2022/03/19 13:49:27;;;;;;;;;;;;;;;;;;5076680;28;1132;-75
2022/03/19 13:51:53;;;;;;;;;;;;;;;;;;5086142;28;1992;-75
2022/03/19 13:54:18;;;;;;;;;;;;;;;;;;5070523;28;1569;-75
2022/03/19 13:56:54;;;;;;;;;;;;;;;;;;5057506;28;1246;-75
2022/03/19 13:59:31;;;;;;;;;;;;;;;;;;5099465;28;1215;-75
2022/03/19 14:02:00;;;;;;;;;;;;;;;;;;5091441;28;1325;-76
2022/03/19 14:04:26;;;;;;;;;;;;;;;;;;5080735;28;1211;-75
2022/03/19 14:06:52;;;;;;;;;;;;;;;;;;5070562;28;1104;-76
2022/03/19 14:09:17;;;;;;;;;;;;;;;;;;5080658;28;1052;-76
2022/03/19 14:11:44;;;;;;;;;;;;;;;;;;5082160;28;1990;-75
2022/03/19 14:14:15;;;;;;;;;;;;;;;;;;5062540;28;1339;-74
2022/03/19 14:16:53;;;;;;;;;;;;;;;;;;5099659;28;1167;-76
2022/03/19 14:19:18;;;;;;;;;;;;;;;;;;5074018;28;1101;-76
2022/03/19 14:21:43;;;;;;;;;;;;;;;;;;5066682;28;1347;-75
2022/03/19 14:24:08;;;;;;;;;;;;;;;;;;5060841;28;1500;-76
2022/03/19 14:26:34;;;;;;;;;;;;;;;;;;5066272;28;1330;-77
2022/03/19 14:28:59;;;;;;;;;;;;;;;;;;5081333;28;1223;-75
2022/03/19 14:31:31;;;;;;;;;;;;;;;;;;5083173;28;1969;-75
2022/03/19 14:33:56;;;;;;;;;;;;;;;;;;5079565;28;1416;-77
2022/03/19 14:36:22;;;;;;;;;;;;;;;;;;5082569;28;1275;-77
2022/03/19 14:38:49;;;;;;;;;;;;;;;;;;5084070;28;1290;-78
2022/03/19 14:41:15;;;;;;;;;;;;;;;;;;5052534;28;1179;-76
2022/03/19 14:43:41;;;;;;;;;;;;;;;;;;5061052;28;1168;-74
2022/03/19 14:46:10;;;;;;;;;;;;;;;;;;5063102;28;1595;-77
2022/03/19 14:48:36;;;;;;;;;;;;;;;;;;5059078;28;1183;-75
2022/03/19 14:51:05;;;;;;;;;;;;;;;;;;5066144;28;1141;-76
2022/03/19 14:53:34;;;;;;;;;;;;;;;;;;5062803;28;1215;-76
2022/03/19 14:56:00;;;;;;;;;;;;;;;;;;5065643;28;1190;-76
2022/03/19 14:58:25;;;;;;;;;;;;;;;;;;5059129;28;1176;-75
2022/03/19 15:00:51;;;;;;;;;;;;;;;;;;5066153;28;1112;-76
2022/03/19 15:03:16;;;;;;;;;;;;;;;;;;5054805;28;1284;-76
2022/03/19 15:05:42;;;;;;;;;;;;;;;;;;5065790;28;1457;-76
2022/03/19 15:08:08;;;;;;;;;;;;;;;;;;5044321;28;1381;-75
2022/03/19 15:10:33;;;;;;;;;;;;;;;;;;5048800;28;1296;-76
2022/03/19 15:13:11;;;;;;;;;;;;;;;;;;5044232;28;1972;-76
2022/03/19 15:15:36;;;;;;;;;;;;;;;;;;5074523;28;1300;-77
2022/03/19 15:18:02;;;;;;;;;;;;;;;;;;5080293;28;1186;-75
2022/03/19 15:20:27;;;;;;;;;;;;;;;;;;5086020;28;1315;-75
2022/03/19 15:22:52;;;;;;;;;;;;;;;;;;5091614;28;1270;-76
2022/03/19 15:25:18;;;;;;;;;;;;;;;;;;5072911;28;1168;-75
2022/03/19 15:27:44;;;;;;;;;;;;;;;;;;5089135;28;1140;-75
2022/03/19 15:30:11;;;;;;;;;;;;;;;;;;5086824;28;1284;-74
2022/03/19 15:32:37;;;;;;;;;;;;;;;;;;5086567;28;2004;-76
2022/03/19 15:35:03;;;;;;;;;;;;;;;;;;5087963;28;1295;-76
2022/03/19 15:37:28;;;;;;;;;;;;;;;;;;5085717;28;1190;-76
2022/03/19 15:39:54;;;;;;;;;;;;;;;;;;5057018;28;1420;-76
2022/03/19 15:42:20;;;;;;;;;;;;;;;;;;5051814;28;1120;-76
2022/03/19 15:44:45;;;;;;;;;;;;;;;;;;5064773;28;1235;-76
2022/03/19 15:47:11;;;;;;;;;;;;;;;;;;5102045;28;1163;-75
2022/03/19 15:49:37;;;;;;;;;;;;;;;;;;5068738;28;1402;-76
2022/03/19 15:52:03;;;;;;;;;;;;;;;;;;5083066;28;1914;-76
2022/03/19 15:54:30;;;;;;;;;;;;;;;;;;5090875;28;1085;-76
2022/03/19 15:56:56;;;;;;;;;;;;;;;;;;5081315;28;1191;-75
2022/03/19 15:59:21;;;;;;;;;;;;;;;;;;5095435;28;1231;-76
2022/03/19 16:01:47;;;;;;;;;;;;;;;;;;5087368;28;1278;-77
2022/03/19 16:04:15;;;;;;;;;;;;;;;;;;5076872;28;1377;-76
2022/03/19 16:06:40;;;;;;;;;;;;;;;;;;5070077;28;1171;-73
2022/03/19 16:09:05;;;;;;;;;;;;;;;;;;5081995;28;1218;-73
2022/03/19 16:11:30;;;;;;;;;;;;;;;;;;5081176;28;1937;-73
2022/03/19 16:13:55;;;;;;;;;;;;;;;;;;5061499;28;1171;-73
2022/03/19 16:16:22;;;;;;;;;;;;;;;;;;5042982;28;1341;-72
2022/03/19 16:18:47;;;;;;;;;;;;;;;;;;5065908;28;1237;-73
2022/03/19 16:21:13;;;;;;;;;;;;;;;;;;5069738;28;1266;-73
2022/03/19 16:23:38;;;;;;;;;;;;;;;;;;5064928;28;1428;-73
2022/03/19 16:26:03;;;;;;;;;;;;;;;;;;5063140;28;1196;-73
2022/03/19 16:28:29;;;;;;;;;;;;;;;;;;5059469;28;1398;-74
2022/03/19 16:30:54;;;;;;;;;;;;;;;;;;5062349;28;1340;-74
2022/03/19 16:33:19;;;;;;;;;;;;;;;;;;5079548;28;1981;-74
2022/03/19 16:35:46;;;;;;;;;;;;;;;;;;5058141;28;1398;-74
2022/03/19 16:38:13;;;;;;;;;;;;;;;;;;5068803;28;1303;-73
2022/03/19 16:40:39;;;;;;;;;;;;;;;;;;5063058;28;1343;-74
2022/03/19 16:43:15;;;;;;;;;;;;;;;;;;5077195;28;1210;-75
2022/03/19 16:45:41;;;;;;;;;;;;;;;;;;5064756;28;1145;-75
2022/03/19 16:48:10;;;;;;;;;;;;;;;;;;5066252;28;1199;-74
2022/03/19 16:50:35;;;;;;;;;;;;;;;;;;5082093;28;1309;-75
2022/03/19 16:53:00;;;;;;;;;;;;;;;;;;5061531;28;1918;-74
2022/03/19 16:55:26;;;;;;;;;;;;;;;;;;5099500;28;1127;-76
2022/03/19 16:57:52;;;;;;;;;;;;;;;;;;5053234;28;1231;-75
2022/03/19 17:00:18;;;;;;;;;;;;;;;;;;5099640;28;1127;-74
2022/03/19 17:02:45;;;;;;;;;;;;;;;;;;5079433;28;1207;-75
2022/03/19 17:05:11;;;;;;;;;;;;;;;;;;5080506;28;1249;-74
2022/03/19 17:07:36;;;;;;;;;;;;;;;;;;5076646;28;1298;-75
2022/03/19 17:10:02;;;;;;;;;;;;;;;;;;5078058;28;1096;-75
2022/03/19 17:12:27;;;;;;;;;;;;;;;;;;5094941;28;1894;-73
2022/03/19 17:14:54;;;;;;;;;;;;;;;;;;5062958;28;1199;-74